createdAt,value
2023-01-21T00:02:21.555Z,7.80
2023-01-21T00:04:48.456Z,7.70
2023-01-21T00:07:15.263Z,7.70
2023-01-21T00:09:42.016Z,7.70
2023-01-21T00:12:08.955Z,7.80
2023-01-21T00:14:35.650Z,7.80
2023-01-21T00:17:02.412Z,7.70
2023-01-21T00:19:29.735Z,7.70
2023-01-21T00:21:56.562Z,7.70
2023-01-21T00:24:24.477Z,7.70
2023-01-21T00:26:51.356Z,7.70
2023-01-21T00:29:18.136Z,7.70
2023-01-21T00:31:44.981Z,7.70
2023-01-21T00:34:11.910Z,7.70
2023-01-21T00:36:38.621Z,7.70
2023-01-21T00:39:05.375Z,7.70
2023-01-21T00:41:32.297Z,7.70
2023-01-21T00:43:59.010Z,7.80
2023-01-21T00:46:25.910Z,7.70
2023-01-21T00:48:52.680Z,7.70
2023-01-21T00:51:19.483Z,7.70
2023-01-21T00:53:46.200Z,7.70
2023-01-21T00:56:13.506Z,7.70
2023-01-21T00:58:40.543Z,7.70
2023-01-21T01:01:11.650Z,7.70
2023-01-21T01:03:39.511Z,7.70
2023-01-21T01:06:11.041Z,7.60
2023-01-21T01:08:40.795Z,7.70
2023-01-21T01:11:07.535Z,7.70
2023-01-21T01:13:35.183Z,7.70
2023-01-21T01:16:02.720Z,7.70
2023-01-21T01:18:30.442Z,7.70
2023-01-21T01:20:57.143Z,7.70
2023-01-21T01:23:24.527Z,7.70
2023-01-21T01:26:01.916Z,7.70
2023-01-21T01:28:29.094Z,7.70
2023-01-21T01:30:56.220Z,7.70
2023-01-21T01:33:24.383Z,7.70
2023-01-21T01:35:51.155Z,7.70
2023-01-21T01:38:20.239Z,7.70
2023-01-21T01:40:47.604Z,7.70
2023-01-21T01:43:16.105Z,7.70
2023-01-21T01:45:42.844Z,7.70
2023-01-21T01:48:11.041Z,7.70
2023-01-21T01:50:38.940Z,7.60
2023-01-21T01:53:07.443Z,7.70
2023-01-21T01:55:35.512Z,7.70
2023-01-21T01:58:04.081Z,7.70
2023-01-21T02:00:30.855Z,7.70
2023-01-21T02:03:16.590Z,7.60
2023-01-21T02:05:43.989Z,7.60
2023-01-21T02:08:10.984Z,7.60
2023-01-21T02:10:37.853Z,7.60
2023-01-21T02:13:04.947Z,7.60
2023-01-21T02:15:52.029Z,7.60
2023-01-21T02:18:30.983Z,7.60
2023-01-21T02:21:04.483Z,7.70
2023-01-21T02:23:54.888Z,7.60
2023-01-21T02:26:30.528Z,7.60
2023-01-21T02:29:17.493Z,7.60
2023-01-21T02:31:53.379Z,7.70
2023-01-21T02:34:20.129Z,7.70
2023-01-21T02:36:49.698Z,7.60
2023-01-21T02:39:34.627Z,7.70
2023-01-21T02:42:01.676Z,7.60
2023-01-21T02:44:32.535Z,7.60
2023-01-21T02:47:05.225Z,7.60
2023-01-21T02:49:34.402Z,7.60
2023-01-21T02:52:01.073Z,7.60
2023-01-21T02:54:40.059Z,7.60
2023-01-21T02:57:14.812Z,7.60
2023-01-21T02:59:43.824Z,7.60
2023-01-21T03:02:22.300Z,7.60
2023-01-21T03:05:11.615Z,7.50
2023-01-21T03:07:42.744Z,7.60
2023-01-21T03:10:12.174Z,7.60
2023-01-21T03:12:48.633Z,7.60
2023-01-21T03:15:50.740Z,7.70
2023-01-21T03:18:22.944Z,7.70
2023-01-21T03:20:54.143Z,7.70
2023-01-21T03:23:23.844Z,7.60
2023-01-21T03:25:50.944Z,7.70
2023-01-21T03:28:20.930Z,7.60
2023-01-21T03:30:49.299Z,7.60
2023-01-21T03:33:17.064Z,7.60
2023-01-21T03:35:45.757Z,7.60
2023-01-21T03:38:15.219Z,7.60
2023-01-21T03:40:50.859Z,7.60
2023-01-21T03:43:17.624Z,7.60
2023-01-21T03:45:54.725Z,7.60
2023-01-21T03:48:28.484Z,7.60
2023-01-21T03:50:59.147Z,7.60
2023-01-21T03:53:25.955Z,7.60
2023-01-21T03:55:52.782Z,7.70
2023-01-21T03:58:19.683Z,7.70
2023-01-21T04:00:48.356Z,7.60
2023-01-21T04:03:15.132Z,7.60
2023-01-21T04:05:41.880Z,7.50
2023-01-21T04:08:08.714Z,7.50
2023-01-21T04:10:35.414Z,7.50
2023-01-21T04:13:02.211Z,7.50
2023-01-21T04:15:28.944Z,7.50
2023-01-21T04:17:55.678Z,7.50
2023-01-21T04:20:22.484Z,7.60
2023-01-21T04:22:49.289Z,7.60
2023-01-21T04:25:16.064Z,7.60
2023-01-21T04:27:42.850Z,7.60
2023-01-21T04:30:09.842Z,7.50
2023-01-21T04:32:37.492Z,7.60
2023-01-21T04:35:04.538Z,7.60
2023-01-21T04:37:31.433Z,7.60
2023-01-21T04:39:58.131Z,7.50
2023-01-21T04:42:24.884Z,7.50
2023-01-21T04:44:51.623Z,7.60
2023-01-21T04:47:18.330Z,7.50
2023-01-21T04:49:45.116Z,7.60
2023-01-21T04:52:11.880Z,7.50
2023-01-21T04:54:38.599Z,7.50
2023-01-21T04:57:05.423Z,7.60
2023-01-21T04:59:32.219Z,7.60
2023-01-21T05:01:58.925Z,7.60
2023-01-21T05:04:25.763Z,7.50
2023-01-21T05:06:52.600Z,7.50
2023-01-21T05:09:19.314Z,7.60
2023-01-21T05:11:46.215Z,7.50
2023-01-21T05:14:12.969Z,7.50
2023-01-21T05:16:39.711Z,7.50
2023-01-21T05:19:06.532Z,7.50
2023-01-21T05:21:33.271Z,7.50
2023-01-21T05:24:00.010Z,7.50
2023-01-21T05:26:26.860Z,7.50
2023-01-21T05:28:53.593Z,7.50
2023-01-21T05:31:20.447Z,7.60
2023-01-21T05:33:48.129Z,7.60
2023-01-21T05:36:14.833Z,7.50
2023-01-21T05:38:41.523Z,7.50
2023-01-21T05:41:08.439Z,7.50
2023-01-21T05:43:35.161Z,7.60
2023-01-21T05:46:02.053Z,7.50
2023-01-21T05:48:29.813Z,7.60
2023-01-21T05:50:58.383Z,7.60
2023-01-21T05:53:25.650Z,7.60
2023-01-21T05:55:53.267Z,7.60
2023-01-21T05:58:20.203Z,7.50
2023-01-21T06:00:48.538Z,7.50
2023-01-21T06:03:16.233Z,7.50
2023-01-21T06:05:43.252Z,7.50
2023-01-21T06:08:10.292Z,7.50
2023-01-21T06:10:37.370Z,7.50
2023-01-21T06:13:04.552Z,7.50
2023-01-21T06:15:33.677Z,7.50
2023-01-21T06:18:01.280Z,7.50
2023-01-21T06:20:30.540Z,7.50
2023-01-21T06:22:58.022Z,7.50
2023-01-21T06:25:25.398Z,7.50
2023-01-21T06:27:54.253Z,7.50
2023-01-21T06:30:21.415Z,7.50
2023-01-21T06:32:48.323Z,7.40
2023-01-21T06:35:15.268Z,7.40
2023-01-21T06:37:42.256Z,7.50
2023-01-21T06:40:10.210Z,7.50
2023-01-21T06:42:36.974Z,7.50
2023-01-21T06:45:04.108Z,7.50
2023-01-21T06:47:31.031Z,7.50
2023-01-21T06:49:57.773Z,7.40
2023-01-21T06:52:24.492Z,7.40
2023-01-21T06:54:51.329Z,7.50
2023-01-21T06:57:18.148Z,7.40
2023-01-21T06:59:45.180Z,7.40
2023-01-21T07:02:15.045Z,7.50
2023-01-21T07:04:41.842Z,7.50
2023-01-21T07:07:08.604Z,7.40
2023-01-21T07:09:35.497Z,7.50
2023-01-21T07:12:02.215Z,7.50
2023-01-21T07:14:28.964Z,7.50
2023-01-21T07:16:55.771Z,7.40
2023-01-21T07:19:22.647Z,7.50
2023-01-21T07:21:49.450Z,7.50
2023-01-21T07:24:16.207Z,7.50
2023-01-21T07:26:43.281Z,7.50
2023-01-21T07:29:10.071Z,7.50
2023-01-21T07:31:37.174Z,7.50
2023-01-21T07:34:04.116Z,7.40
2023-01-21T07:36:30.983Z,7.50
2023-01-21T07:38:58.084Z,7.50
2023-01-21T07:41:25.086Z,7.50
2023-01-21T07:43:51.889Z,7.50
2023-01-21T07:46:19.205Z,7.50
2023-01-21T07:48:49.598Z,7.50
2023-01-21T07:51:16.756Z,7.50
2023-01-21T07:53:43.595Z,7.50
2023-01-21T07:56:10.351Z,7.50
2023-01-21T07:58:37.366Z,7.50
2023-01-21T08:01:05.194Z,7.50
2023-01-21T08:03:31.972Z,7.50
2023-01-21T08:05:58.695Z,7.50
2023-01-21T08:08:25.499Z,7.50
2023-01-21T08:10:52.854Z,7.60
2023-01-21T08:13:19.631Z,7.60
2023-01-21T08:15:50.084Z,7.50
2023-01-21T08:18:16.936Z,7.50
2023-01-21T08:20:43.820Z,7.50
2023-01-21T08:23:10.776Z,7.50
2023-01-21T08:25:38.147Z,7.50
2023-01-21T08:28:05.099Z,7.50
2023-01-21T08:30:31.980Z,7.60
2023-01-21T08:32:58.708Z,7.60
2023-01-21T08:35:25.477Z,7.60
2023-01-21T08:37:54.377Z,7.60
2023-01-21T08:40:21.136Z,7.60
2023-01-21T08:42:47.982Z,7.60
2023-01-21T08:45:15.521Z,7.60
2023-01-21T08:47:42.268Z,7.60
2023-01-21T08:50:09.862Z,7.60
2023-01-21T08:52:36.718Z,7.60
2023-01-21T08:55:03.530Z,7.70
2023-01-21T08:57:30.265Z,7.60
2023-01-21T08:59:57.011Z,7.70
2023-01-21T09:02:23.894Z,7.60
2023-01-21T09:04:50.687Z,7.60
2023-01-21T09:07:17.448Z,7.70
2023-01-21T09:09:44.265Z,7.60
2023-01-21T09:12:11.111Z,7.60
2023-01-21T09:14:37.918Z,7.60
2023-01-21T09:17:04.650Z,7.60
2023-01-21T09:19:33.271Z,7.50
2023-01-21T09:22:00.106Z,7.50
2023-01-21T09:24:26.871Z,7.50
2023-01-21T09:26:53.649Z,7.50
2023-01-21T09:29:20.430Z,7.50
2023-01-21T09:31:47.201Z,7.50
2023-01-21T09:34:14.113Z,7.50
2023-01-21T09:36:41.029Z,7.40
2023-01-21T09:39:07.966Z,7.20
2023-01-21T09:41:54.185Z,6.90
2023-01-21T09:44:29.802Z,6.70
2023-01-21T09:47:11.661Z,6.70
2023-01-21T09:49:39.499Z,6.70
2023-01-21T09:52:20.392Z,6.50
2023-01-21T09:54:47.238Z,6.50
2023-01-21T09:57:16.954Z,6.60
2023-01-21T09:59:43.747Z,6.40
2023-01-21T10:02:33.070Z,6.40
2023-01-21T10:05:11.863Z,6.40
2023-01-21T10:07:42.723Z,6.30
2023-01-21T10:10:17.215Z,6.40
2023-01-21T10:12:43.958Z,6.40
2023-01-21T10:15:23.876Z,6.30
2023-01-21T10:18:09.137Z,6.40
2023-01-21T10:20:44.847Z,6.30
2023-01-21T10:23:15.029Z,6.30
2023-01-21T10:25:41.799Z,6.30
2023-01-21T10:28:14.354Z,6.30
2023-01-21T10:30:45.965Z,6.40
2023-01-21T10:33:16.597Z,6.30
2023-01-21T10:35:49.062Z,6.30
2023-01-21T10:38:36.042Z,6.30
2023-01-21T10:41:21.621Z,6.30
2023-01-21T10:44:15.273Z,6.30
2023-01-21T10:46:57.043Z,6.20
2023-01-21T10:49:23.769Z,6.30
2023-01-21T10:52:03.304Z,6.30
2023-01-21T10:54:39.290Z,6.30
2023-01-21T10:57:12.088Z,6.40
2023-01-21T10:59:39.670Z,6.30
2023-01-21T11:02:09.268Z,6.30
2023-01-21T11:04:36.923Z,6.30
2023-01-21T11:07:04.687Z,6.20
2023-01-21T11:09:36.855Z,6.30
2023-01-21T11:12:03.716Z,6.20
2023-01-21T11:14:30.610Z,6.20
2023-01-21T11:16:57.665Z,6.20
2023-01-21T11:19:26.239Z,6.20
2023-01-21T11:22:02.665Z,6.30
2023-01-21T11:24:30.247Z,6.30
2023-01-21T11:26:58.746Z,6.40
2023-01-21T11:29:26.019Z,6.40
2023-01-21T11:32:00.491Z,6.30
2023-01-21T11:34:27.793Z,6.20
2023-01-21T11:36:57.632Z,6.30
2023-01-21T11:39:25.534Z,6.30
2023-01-21T11:41:53.417Z,6.40
2023-01-21T11:44:20.925Z,6.50
2023-01-21T11:46:47.961Z,6.60
2023-01-21T11:49:24.865Z,6.70
2023-01-21T11:51:52.210Z,6.70
2023-01-21T11:54:20.463Z,6.80
2023-01-21T11:56:57.868Z,6.90
2023-01-21T11:59:24.629Z,6.90
2023-01-21T12:01:57.926Z,7.00
2023-01-21T12:04:25.504Z,7.00
2023-01-21T12:06:57.960Z,7.00
2023-01-21T12:09:25.125Z,7.00
2023-01-21T12:12:18.292Z,7.00
2023-01-21T12:14:53.630Z,7.10
2023-01-21T12:17:40.139Z,7.10
2023-01-21T12:20:18.161Z,7.00
2023-01-21T12:22:50.863Z,7.00
2023-01-21T12:25:23.052Z,7.10
2023-01-21T12:27:53.044Z,7.10
2023-01-21T12:30:41.082Z,7.10
2023-01-21T12:33:13.432Z,7.10
2023-01-21T12:35:47.699Z,7.00
2023-01-21T12:38:19.809Z,7.10
2023-01-21T12:40:50.027Z,7.10
2023-01-21T12:43:20.997Z,7.20
2023-01-21T12:46:00.353Z,7.10
2023-01-21T12:48:32.169Z,7.10
2023-01-21T12:51:07.226Z,7.10
2023-01-21T12:53:40.092Z,7.10
2023-01-21T12:56:09.853Z,7.10
2023-01-21T12:58:39.023Z,7.10
2023-01-21T13:01:08.984Z,7.10
2023-01-21T13:03:50.715Z,7.10
2023-01-21T13:06:47.203Z,7.10
2023-01-21T13:09:31.324Z,7.10
2023-01-21T13:12:01.900Z,7.10
2023-01-21T13:14:31.288Z,7.10
2023-01-21T13:17:00.735Z,7.10
2023-01-21T13:19:27.687Z,7.10
2023-01-21T13:22:05.211Z,7.10
2023-01-21T13:24:33.503Z,7.10
2023-01-21T13:27:05.911Z,7.10
2023-01-21T13:29:41.500Z,7.10
2023-01-21T13:32:14.541Z,7.10
2023-01-21T13:34:59.799Z,7.10
2023-01-21T13:37:33.940Z,7.10
2023-01-21T13:40:33.357Z,7.10
2023-01-21T13:43:02.904Z,7.10
2023-01-21T13:45:29.698Z,7.10
2023-01-21T13:48:05.897Z,7.10
2023-01-21T13:50:46.476Z,7.10
2023-01-21T13:53:26.458Z,7.10
2023-01-21T13:56:11.947Z,7.10
2023-01-21T13:58:41.811Z,7.10
2023-01-21T14:01:15.342Z,7.10
2023-01-21T14:03:50.100Z,7.10
2023-01-21T14:06:22.265Z,7.10
2023-01-21T14:08:52.215Z,7.10
2023-01-21T14:11:27.697Z,7.10
2023-01-21T14:14:00.286Z,7.10
2023-01-21T14:16:27.033Z,7.10
2023-01-21T14:19:07.731Z,7.10
2023-01-21T14:21:43.814Z,7.10
2023-01-21T14:24:17.660Z,7.10
2023-01-21T14:26:47.112Z,7.10
2023-01-21T14:29:23.158Z,7.10
2023-01-21T14:32:03.942Z,7.10
2023-01-21T14:34:40.951Z,7.10
2023-01-21T14:37:11.239Z,7.10
2023-01-21T14:39:43.828Z,7.10
2023-01-21T14:42:12.593Z,7.10
2023-01-21T14:44:43.530Z,7.10
2023-01-21T14:47:16.405Z,7.10
2023-01-21T14:49:48.165Z,7.10
2023-01-21T14:52:18.957Z,7.10
2023-01-21T14:54:46.449Z,7.10
2023-01-21T14:57:29.859Z,7.10
2023-01-21T15:00:08.884Z,7.10
2023-01-21T15:02:42.156Z,7.10
2023-01-21T15:05:18.737Z,7.10
2023-01-21T15:07:47.578Z,7.10
2023-01-21T15:10:24.911Z,7.10
2023-01-21T15:12:53.958Z,7.10
2023-01-21T15:15:33.011Z,7.10
2023-01-21T15:18:04.405Z,7.10
2023-01-21T15:20:49.599Z,7.10
2023-01-21T15:23:31.842Z,7.10
2023-01-21T15:26:07.801Z,7.10
2023-01-21T15:28:49.805Z,7.10
2023-01-21T15:31:23.605Z,7.20
2023-01-21T15:33:53.967Z,7.10
2023-01-21T15:36:24.858Z,7.10
2023-01-21T15:39:00.676Z,7.10
2023-01-21T15:41:35.383Z,7.10
2023-01-21T15:44:08.380Z,7.10
2023-01-21T15:46:55.350Z,7.10
2023-01-21T15:49:22.106Z,7.10
2023-01-21T15:51:54.867Z,7.10
2023-01-21T15:54:44.353Z,7.10
2023-01-21T15:57:20.231Z,7.10
2023-01-21T15:59:46.999Z,7.10
2023-01-21T16:02:25.464Z,7.10
2023-01-21T16:05:11.162Z,7.10
2023-01-21T16:07:55.200Z,7.10
2023-01-21T16:10:29.108Z,7.10
2023-01-21T16:13:14.613Z,7.10
2023-01-21T16:15:49.951Z,7.10
2023-01-21T16:18:20.060Z,7.10
2023-01-21T16:20:49.013Z,7.10
2023-01-21T16:23:17.883Z,7.10
2023-01-21T16:25:46.237Z,7.10
2023-01-21T16:28:12.945Z,7.10
2023-01-21T16:30:39.734Z,7.10
2023-01-21T16:33:11.017Z,7.10
2023-01-21T16:35:43.660Z,7.10
2023-01-21T16:38:20.719Z,7.10
2023-01-21T16:40:51.089Z,7.10
2023-01-21T16:43:21.606Z,7.10
2023-01-21T16:45:52.901Z,7.10
2023-01-21T16:48:22.034Z,7.10
2023-01-21T16:50:48.945Z,7.10
2023-01-21T16:53:16.823Z,7.10
2023-01-21T16:55:47.867Z,7.10
2023-01-21T16:58:22.749Z,7.10
2023-01-21T17:00:58.417Z,7.10
2023-01-21T17:03:25.364Z,7.10
2023-01-21T17:05:57.003Z,7.10
2023-01-21T17:08:24.125Z,7.10
2023-01-21T17:10:59.198Z,7.10
2023-01-21T17:13:26.249Z,7.10
2023-01-21T17:16:03.056Z,7.10
2023-01-21T17:18:43.451Z,7.10
2023-01-21T17:21:15.135Z,7.10
2023-01-21T17:23:53.796Z,7.10
2023-01-21T17:26:26.415Z,7.10
2023-01-21T17:28:59.272Z,7.10
2023-01-21T17:31:26.346Z,7.10
2023-01-21T17:34:11.833Z,7.10
2023-01-21T17:36:39.681Z,7.10
2023-01-21T17:39:07.581Z,7.10
2023-01-21T17:41:38.314Z,7.10
2023-01-21T17:44:06.900Z,7.10
2023-01-21T17:46:33.986Z,7.10
2023-01-21T17:49:05.635Z,7.10
2023-01-21T17:51:33.888Z,7.10
2023-01-21T17:54:05.439Z,7.10
2023-01-21T17:56:38.560Z,7.10
2023-01-21T17:59:25.985Z,7.10
2023-01-21T18:01:53.308Z,7.10
2023-01-21T18:04:20.039Z,7.10
2023-01-21T18:06:46.815Z,7.10
2023-01-21T18:09:16.480Z,7.10
2023-01-21T18:11:45.395Z,7.10
2023-01-21T18:14:15.594Z,7.10
2023-01-21T18:16:42.775Z,7.10
2023-01-21T18:19:11.681Z,7.10
2023-01-21T18:21:38.427Z,7.10
2023-01-21T18:24:08.822Z,7.20
2023-01-21T18:26:35.815Z,7.30
2023-01-21T18:29:03.004Z,7.30
2023-01-21T18:31:29.991Z,7.20
2023-01-21T18:33:56.852Z,7.20
2023-01-21T18:36:23.975Z,7.30
2023-01-21T18:38:50.927Z,7.30
2023-01-21T18:41:17.847Z,7.30
2023-01-21T18:43:44.906Z,7.20
2023-01-21T18:46:13.035Z,7.20
2023-01-21T18:48:39.948Z,7.30
2023-01-21T18:51:07.192Z,7.30
2023-01-21T18:53:33.992Z,7.30
2023-01-21T18:56:01.289Z,7.30
2023-01-21T18:58:28.001Z,7.30
2023-01-21T19:00:54.926Z,7.30
2023-01-21T19:03:23.245Z,7.30
2023-01-21T19:05:51.006Z,7.20
2023-01-21T19:08:19.125Z,7.20
2023-01-21T19:10:45.882Z,7.20
2023-01-21T19:13:12.687Z,7.20
2023-01-21T19:15:39.634Z,7.20
2023-01-21T19:18:13.779Z,7.10
2023-01-21T19:20:41.795Z,7.10
2023-01-21T19:23:15.638Z,7.20
2023-01-21T19:25:48.070Z,7.10
2023-01-21T19:28:14.828Z,7.20
2023-01-21T19:30:45.170Z,7.20
2023-01-21T19:33:12.544Z,7.30
2023-01-21T19:35:41.918Z,7.30
2023-01-21T19:38:18.818Z,7.20
2023-01-21T19:40:48.455Z,7.30
2023-01-21T19:43:20.736Z,7.30
2023-01-21T19:45:48.149Z,7.30
2023-01-21T19:48:15.941Z,7.30
2023-01-21T19:50:43.093Z,7.20
2023-01-21T19:53:10.688Z,7.20
2023-01-21T19:55:39.117Z,7.20
2023-01-21T19:58:13.549Z,7.20
2023-01-21T20:00:40.464Z,7.20
2023-01-21T20:03:09.329Z,7.20
2023-01-21T20:05:36.276Z,7.20
2023-01-21T20:08:03.125Z,7.20
2023-01-21T20:10:30.473Z,7.20
2023-01-21T20:12:57.582Z,7.30
2023-01-21T20:15:29.126Z,7.20
2023-01-21T20:17:56.801Z,7.30
2023-01-21T20:20:24.844Z,7.30
2023-01-21T20:22:51.933Z,7.20
2023-01-21T20:25:39.049Z,7.30
2023-01-21T20:28:14.508Z,7.20
2023-01-21T20:30:41.356Z,7.20
2023-01-21T20:33:11.980Z,7.20
2023-01-21T20:35:38.760Z,7.20
2023-01-21T20:38:06.594Z,7.20
2023-01-21T20:40:33.295Z,7.30
2023-01-21T20:43:00.439Z,7.30
2023-01-21T20:48:34.052Z,7.30
2023-01-21T20:51:01.118Z,7.30
2023-01-21T20:53:28.096Z,7.30
2023-01-21T20:55:55.859Z,7.30
2023-01-21T20:58:22.686Z,7.20
2023-01-21T21:00:49.601Z,7.30
2023-01-21T21:03:18.219Z,7.30
2023-01-21T21:05:48.731Z,7.30
2023-01-21T21:08:19.813Z,7.20
2023-01-21T21:10:46.957Z,7.30
2023-01-21T21:13:14.201Z,7.30
2023-01-21T21:15:41.367Z,7.30
2023-01-21T21:18:10.221Z,7.30
2023-01-21T21:20:38.828Z,7.30
2023-01-21T21:23:06.147Z,7.30
2023-01-21T21:25:34.792Z,7.30
2023-01-21T21:28:01.569Z,7.30
2023-01-21T21:30:29.695Z,7.30
2023-01-21T21:32:57.227Z,7.30
2023-01-21T21:35:31.135Z,7.30
2023-01-21T21:38:04.163Z,7.20
2023-01-21T21:40:31.013Z,7.30
2023-01-21T21:43:16.708Z,7.30
2023-01-21T21:46:02.242Z,7.30
2023-01-21T21:48:39.061Z,7.20
2023-01-21T21:51:06.984Z,7.20
2023-01-21T21:53:33.823Z,7.20
2023-01-21T21:56:02.019Z,7.20
2023-01-21T21:58:28.842Z,7.30
2023-01-21T22:00:55.620Z,7.30
2023-01-21T22:03:22.420Z,7.20
2023-01-21T22:05:52.943Z,7.30
2023-01-21T22:08:19.747Z,7.30
2023-01-21T22:10:55.464Z,7.20
2023-01-21T22:13:22.182Z,7.20
2023-01-21T22:15:58.910Z,7.30
2023-01-21T22:18:26.375Z,7.30
2023-01-21T22:20:59.031Z,7.30
2023-01-21T22:23:25.765Z,7.30
2023-01-21T22:25:53.776Z,7.30
2023-01-21T22:28:21.659Z,7.30
2023-01-21T22:30:48.543Z,7.30
2023-01-21T22:33:15.342Z,7.30
2023-01-21T22:35:42.320Z,7.30
2023-01-21T22:38:09.060Z,7.30
2023-01-21T22:40:40.043Z,7.30
2023-01-21T22:43:07.284Z,7.30
2023-01-21T22:45:34.147Z,7.30
2023-01-21T22:48:01.450Z,7.30
2023-01-21T22:50:28.593Z,7.30
2023-01-21T22:52:55.750Z,7.20
2023-01-21T22:55:22.497Z,7.20
2023-01-21T22:57:49.297Z,7.20
2023-01-21T23:00:31.490Z,7.20
2023-01-21T23:02:58.621Z,7.20
2023-01-21T23:05:26.981Z,7.20
2023-01-21T23:07:54.405Z,7.20
2023-01-21T23:10:21.172Z,7.20
2023-01-21T23:12:48.219Z,7.20
2023-01-21T23:15:15.021Z,7.20
2023-01-21T23:17:41.879Z,7.30
2023-01-21T23:20:09.133Z,7.20
2023-01-21T23:22:35.870Z,7.20
2023-01-21T23:25:02.783Z,7.20
2023-01-21T23:27:29.555Z,7.30
2023-01-21T23:29:56.320Z,7.20
2023-01-21T23:32:23.143Z,7.20
2023-01-21T23:34:49.869Z,7.30
2023-01-21T23:37:16.620Z,7.30
2023-01-21T23:39:43.562Z,7.20
2023-01-21T23:42:10.329Z,7.30
2023-01-21T23:44:37.591Z,7.30
2023-01-21T23:47:04.470Z,7.30
2023-01-21T23:49:31.619Z,7.20
2023-01-21T23:51:58.319Z,7.20
2023-01-21T23:54:25.088Z,7.20
2023-01-21T23:56:51.859Z,7.30
2023-01-21T23:59:18.658Z,7.30
